Time;durP1;ratioP1;P1;durP2;ratioP2;P2;SDS_P1;SDS_P2;PMS_P1;PMS_P2;Temp;Humidity;BMP_temperature;BMP_pressure;BME280_temperature;BME280_humidity;BME280_pressure;Samples;Min_cycle;Max_cycle;Signal;HPM_P1;HPM_P2
2022/06/04 00:00:22;;;;;;;302.33;289.77;;;;;;;21.39;39.04;101273.94;689828;28;23572;-65
2022/06/04 00:00:45;;;;;;;319.80;306.35;;;;;;;21.41;38.99;101278.13;687481;28;90568;-65
2022/06/04 00:01:06;;;;;;;325.95;312.23;;;;;;;21.41;38.92;101282.78;688656;28;67448;-66
2022/06/04 00:01:27;;;;;;;342.33;327.75;;;;;;;21.39;39.04;101285.78;690139;28;22369;-64
2022/06/04 00:01:49;;;;;;;346.83;332.02;;;;;;;21.38;39.10;101283.28;691150;28;22405;-65
2022/06/04 00:02:11;;;;;;;367.35;351.45;;;;;;;21.38;38.96;101278.59;691016;28;45416;-65
2022/06/04 00:02:32;;;;;;;379.60;363.00;;;;;;;21.38;39.08;101283.28;691898;28;22423;-65
2022/06/04 00:02:53;;;;;;;397.97;380.23;;;;;;;21.35;38.92;101275.50;689953;28;45253;-64
2022/06/04 00:03:16;;;;;;;424.98;405.27;;;;;;;21.35;39.01;101284.56;690492;28;45266;-64
2022/06/04 00:03:39;;;;;;;577.40;536.33;;;;;;;21.33;39.13;101277.63;690334;28;68854;-65
2022/06/04 00:04:01;;;;;;;615.13;567.42;;;;;;;21.30;38.96;101275.34;690524;28;68350;-65
2022/06/04 00:04:23;;;;;;;610.22;561.38;;;;;;;21.31;39.32;101279.78;691446;28;20725;-64
2022/06/04 00:04:44;;;;;;;614.35;562.55;;;;;;;21.30;39.08;101275.34;688195;28;69411;-64
2022/06/04 00:05:08;;;;;;;608.75;558.72;;;;;;;21.29;39.27;101274.53;690827;28;22356;-63
2022/06/04 00:05:31;;;;;;;596.97;554.10;;;;;;;21.29;39.40;101284.69;687671;28;93090;-66
2022/06/04 00:05:55;;;;;;;581.60;543.83;;;;;;;21.26;39.20;101277.75;688560;28;69395;-65
2022/06/04 00:06:16;;;;;;;584.47;547.22;;;;;;;21.24;39.36;101275.22;688744;28;69404;-64
2022/06/04 00:06:38;;;;;;;579.63;542.63;;;;;;;21.23;39.39;101269.97;690658;28;23531;-65
2022/06/04 00:07:00;;;;;;;594.95;554.85;;;;;;;21.20;39.39;101265.78;687430;28;67458;-66
2022/06/04 00:07:21;;;;;;;595.72;553.33;;;;;;;21.24;39.37;101279.88;689852;28;22397;-66
2022/06/04 00:07:43;;;;;;;604.28;558.33;;;;;;;21.20;39.36;101268.50;689659;28;10070;-65
2022/06/04 00:08:09;;;;;;;600.50;554.95;;;;;;;21.25;39.51;101276.06;689111;28;45250;-66
2022/06/04 00:08:33;;;;;;;597.30;551.58;;;;;;;21.25;39.35;101276.06;685094;28;161143;-66
2022/06/04 00:08:54;;;;;;;448.55;424.10;;;;;;;21.24;39.38;101274.41;686993;28;92107;-66
2022/06/04 00:09:15;;;;;;;544.55;512.58;;;;;;;21.23;39.31;101275.47;689958;28;22402;-66
2022/06/04 00:15:28;;;;;;;602.85;558.35;;;;;;;21.23;39.48;101279.03;689237;28;21523;-66
2022/06/04 00:15:42;;;;;;;443.80;422.52;;;;;;;21.18;39.51;101267.94;688378;28;136947;-65
2022/06/04 00:16:05;;;;;;;471.27;447.98;;;;;;;21.20;39.48;101271.25;688852;28;68329;-65
2022/06/04 00:16:27;;;;;;;492.10;467.15;;;;;;;21.21;39.58;101266.63;689258;28;45330;-65
2022/06/04 00:16:50;;;;;;;566.95;529.38;;;;;;;21.21;39.57;101274.88;688321;28;69411;-65
2022/06/04 00:17:11;;;;;;;608.53;555.05;;;;;;;21.21;39.67;101270.19;688069;28;69368;-65
2022/06/04 00:17:32;;;;;;;610.40;557.10;;;;;;;21.21;39.66;101272.13;690040;28;23416;-65
2022/06/04 00:17:53;;;;;;;608.60;556.58;;;;;;;21.21;39.49;101272.13;689623;28;20385;-65
2022/06/04 00:18:16;;;;;;;606.08;554.63;;;;;;;21.21;39.64;101270.19;689568;28;23470;-65
2022/06/04 00:18:38;;;;;;;612.45;561.47;;;;;;;21.21;39.72;101275.69;687896;28;69388;-64
2022/06/04 00:18:59;;;;;;;607.67;557.67;;;;;;;21.20;39.92;101268.50;688250;28;44461;-65
2022/06/04 00:19:21;;;;;;;603.28;554.08;;;;;;;21.20;39.71;101265.78;689479;28;20883;-65
2022/06/04 00:19:45;;;;;;;603.85;555.03;;;;;;;21.20;39.65;101271.25;688451;28;45332;-65
2022/06/04 00:20:07;;;;;;;604.23;555.47;;;;;;;21.18;39.72;101267.94;687604;28;92927;-65
2022/06/04 00:20:28;;;;;;;602.20;550.15;;;;;;;21.19;39.64;101268.75;688068;28;67472;-65
2022/06/04 00:20:53;;;;;;;602.03;549.80;;;;;;;21.16;39.77;101266.47;690098;28;22430;-65
2022/06/04 00:21:14;;;;;;;596.78;549.15;;;;;;;21.18;39.66;101269.84;687503;28;92101;-65
2022/06/04 00:21:37;;;;;;;595.20;551.30;;;;;;;21.17;39.55;101274.47;689170;28;46686;-65
2022/06/04 00:21:58;;;;;;;601.42;550.33;;;;;;;21.16;39.66;101275.56;689051;28;46280;-66
2022/06/04 00:22:19;;;;;;;602.20;551.47;;;;;;;21.16;39.71;101272.81;688458;28;46283;-65
2022/06/04 00:22:40;;;;;;;600.17;548.92;;;;;;;21.15;39.81;101271.13;689188;28;46186;-65
2022/06/04 00:23:05;;;;;;;545.72;493.55;;;;;;;21.15;39.70;101273.06;690171;28;22401;-65
2022/06/04 00:23:26;;;;;;;499.33;446.88;;;;;;;21.12;39.77;101266.13;687235;28;92972;-65
2022/06/04 00:23:47;;;;;;;500.75;448.25;;;;;;;21.13;39.82;101273.28;689169;28;45143;-65
2022/06/04 00:24:10;;;;;;;525.13;471.73;;;;;;;21.13;39.69;101276.03;689550;28;23455;-65
2022/06/04 00:24:31;;;;;;;559.92;506.13;;;;;;;21.13;39.79;101273.28;688613;28;45243;-65
2022/06/04 00:24:53;;;;;;;583.70;528.80;;;;;;;21.11;39.86;101275.41;688293;28;43240;-66
2022/06/04 00:25:15;;;;;;;588.17;533.97;;;;;;;21.10;39.81;101270.16;689094;28;46416;-66
2022/06/04 00:25:39;;;;;;;593.88;539.92;;;;;;;21.10;39.85;101270.16;689159;28;46219;-65
2022/06/04 00:26:03;;;;;;;591.65;538.08;;;;;;;21.10;39.90;101275.66;686942;28;113581;-66
2022/06/04 00:26:24;;;;;;;600.08;547.55;;;;;;;21.10;39.69;101284.75;689319;28;37048;-66
2022/06/04 00:26:45;;;;;;;577.42;522.28;;;;;;;21.06;39.96;101273.41;689921;28;22468;-66
2022/06/04 00:27:07;;;;;;;576.15;520.78;;;;;;;21.09;39.90;101268.50;689516;28;21350;-66
2022/06/04 00:27:29;;;;;;;522.53;469.23;;;;;;;21.04;40.17;101278.28;688637;28;46370;-65
2022/06/04 00:27:51;;;;;;;493.13;440.73;;;;;;;21.09;39.91;101283.06;688415;28;46415;-66
2022/06/04 00:28:12;;;;;;;536.88;482.90;;;;;;;21.07;39.95;101279.72;688592;28;45317;-66
2022/06/04 00:28:34;;;;;;;551.35;496.88;;;;;;;21.07;40.14;101268.72;689299;28;23092;-66
2022/06/04 00:28:56;;;;;;;497.10;444.55;;;;;;;21.06;40.02;101269.78;688676;28;46329;-65
2022/06/04 00:29:18;;;;;;;481.73;429.73;;;;;;;21.06;39.93;101284.38;688694;28;44206;-66
2022/06/04 00:29:39;;;;;;;481.23;429.23;;;;;;;21.05;40.08;101271.72;688129;28;45415;-66
2022/06/04 00:30:00;;;;;;;526.38;472.73;;;;;;;21.05;40.16;101279.94;689814;28;29279;-65
2022/06/04 00:30:22;;;;;;;552.33;497.85;;;;;;;21.06;40.05;101278.03;689532;28;1597;-65
2022/06/04 00:30:44;;;;;;;553.83;505.13;;;;;;;21.05;39.92;101279.94;688588;28;23500;-66
2022/06/04 00:31:06;;;;;;;461.52;437.95;;;;;;;21.05;39.93;101285.44;688084;28;69357;-65
2022/06/04 00:31:27;;;;;;;357.17;341.35;;;;;;;21.02;39.94;101265.88;689381;28;23446;-66
2022/06/04 00:31:50;;;;;;;314.17;301.05;;;;;;;21.03;40.10;101273.88;689109;28;27583;-65
2022/06/04 00:32:12;;;;;;;313.88;300.73;;;;;;;21.00;40.17;101273.47;690284;28;1615;-65
2022/06/04 00:32:34;;;;;;;299.85;287.35;;;;;;;21.01;40.30;101281.47;688042;28;69207;-66
2022/06/04 00:32:55;;;;;;;291.27;279.20;;;;;;;21.00;40.09;101276.22;688925;28;44328;-66
2022/06/04 00:33:17;;;;;;;270.40;259.27;;;;;;;21.01;40.05;101278.72;688678;28;46317;-66
2022/06/04 00:33:39;;;;;;;268.67;257.58;;;;;;;21.01;40.25;101281.47;689841;28;22294;-66
2022/06/04 00:34:00;;;;;;;260.45;249.73;;;;;;;21.01;40.07;101278.72;688598;28;46399;-66
2022/06/04 00:34:21;;;;;;;404.08;374.25;;;;;;;21.02;40.12;101279.59;689860;28;22402;-66
2022/06/04 00:34:45;;;;;;;562.88;508.17;;;;;;;21.03;40.09;101284.00;688009;28;45254;-66
2022/06/04 00:35:07;;;;;;;469.80;430.98;;;;;;;21.02;40.07;101280.41;687796;28;70147;-66
2022/06/04 00:35:28;;;;;;;292.98;280.85;;;;;;;21.02;40.15;101283.16;689161;28;31434;-66
2022/06/04 00:35:51;;;;;;;288.70;276.80;;;;;;;21.03;40.13;101284.00;689984;28;3315;-66
2022/06/04 00:36:14;;;;;;;268.30;257.25;;;;;;;21.01;39.77;101275.16;690036;28;1150;-66
2022/06/04 00:36:35;;;;;;;261.20;250.40;;;;;;;21.02;40.03;101277.66;688174;28;68172;-66
2022/06/04 00:36:56;;;;;;;274.15;262.80;;;;;;;21.02;40.00;101276.84;689382;28;21565;-66
2022/06/04 00:37:18;;;;;;;245.43;235.20;;;;;;;21.02;40.07;101279.59;689490;28;21515;-66
2022/06/04 00:37:40;;;;;;;202.77;194.38;;;;;;;21.02;40.10;101274.94;689012;28;45266;-66
2022/06/04 00:38:01;;;;;;;253.60;243.25;;;;;;;21.02;40.09;101279.59;689271;28;44382;-66
2022/06/04 00:38:24;;;;;;;252.13;241.85;;;;;;;21.03;39.83;101278.50;688733;28;23474;-66
2022/06/04 00:38:48;;;;;;;250.43;240.23;;;;;;;21.03;40.01;101278.50;687272;28;71191;-66
2022/06/04 00:39:09;;;;;;;249.23;239.05;;;;;;;21.02;40.02;101271.34;687048;28;92280;-66
2022/06/04 00:39:30;;;;;;;269.15;257.95;;;;;;;21.01;40.05;101277.91;688788;28;22396;-66
2022/06/04 00:39:52;;;;;;;331.75;317.65;;;;;;;21.02;40.04;101274.09;688934;28;24033;-66
2022/06/04 00:40:20;;;;;;;514.85;473.17;;;;;;;21.00;40.25;101274.34;689282;28;23414;-66
2022/06/04 00:40:45;;;;;;;582.45;530.95;;;;;;;21.01;40.12;101273.25;685719;28;137883;-66
2022/06/04 00:41:20;;;;;;;579.03;524.95;;;;;;;21.00;40.03;101274.34;686478;28;114891;-66
2022/06/04 00:41:47;;;;;;;498.40;445.98;;;;;;;21.00;40.18;101267.97;685687;28;137726;-66
2022/06/04 00:42:11;;;;;;;483.85;431.83;;;;;;;21.00;40.23;101271.59;684960;28;161044;-66
2022/06/04 00:42:32;;;;;;;523.28;469.83;;;;;;;20.98;40.15;101267.38;686904;28;92084;-66
2022/06/04 00:42:54;;;;;;;558.95;505.20;;;;;;;21.01;40.09;101267.75;690334;28;1808;-66
2022/06/04 00:43:18;;;;;;;577.38;524.03;;;;;;;21.01;40.13;101269.66;689051;28;47321;-66
2022/06/04 00:43:56;;;;;;;572.90;518.58;;;;;;;21.01;40.17;101269.66;688052;28;67470;-66
2022/06/04 00:45:05;;;;;;;578.53;525.10;;;;;;;21.01;40.08;101264.19;683081;28;137739;-66
2022/06/04 00:46:15;;;;;;;574.50;519.78;;;;;;;20.98;40.01;101267.38;682009;28;156443;-66
2022/06/04 00:47:11;;;;;;;598.17;546.45;;;;;;;20.99;40.15;101274.56;685496;28;139871;-66
2022/06/04 00:47:36;;;;;;;307.50;289.23;;;;;;;20.97;40.39;101272.06;685624;28;137681;-66
2022/06/04 00:47:57;;;;;;;424.90;391.55;;;;;;;20.99;40.22;101269.91;686584;28;115138;-66
2022/06/04 00:48:20;;;;;;;577.50;522.60;;;;;;;20.99;40.25;101269.91;689994;28;22400;-66
2022/06/04 00:48:41;;;;;;;576.88;521.97;;;;;;;20.98;40.32;101272.88;690604;28;69221;-65
2022/06/04 00:49:03;;;;;;;577.15;522.28;;;;;;;20.96;40.29;101264.06;692583;28;22523;-66
2022/06/04 00:49:25;;;;;;;579.55;524.92;;;;;;;20.96;40.37;101273.13;691107;28;44394;-66
2022/06/04 00:49:47;;;;;;;583.58;529.17;;;;;;;20.96;40.11;101266.78;691390;28;22405;-66
2022/06/04 00:50:09;;;;;;;416.80;381.30;;;;;;;20.95;40.30;101268.69;690734;28;69449;-66
2022/06/04 00:50:33;;;;;;;147.10;140.80;;;;;;;20.90;40.40;101259.50;691549;28;45228;-66
2022/06/04 00:50:54;;;;;;;294.55;272.25;;;;;;;20.95;40.40;101268.69;689826;28;92495;-66
2022/06/04 00:51:15;;;;;;;567.72;513.50;;;;;;;20.94;40.45;101272.53;691924;28;22380;-66
2022/06/04 00:51:39;;;;;;;327.55;300.85;;;;;;;20.94;40.42;101266.16;692619;28;21311;-66
2022/06/04 00:52:00;;;;;;;125.88;120.57;;;;;;;20.94;40.38;101266.16;691073;28;67484;-66
2022/06/04 00:52:22;;;;;;;129.32;123.85;;;;;;;20.93;40.48;101262.59;692339;28;22412;-66
2022/06/04 00:52:45;;;;;;;133.43;127.75;;;;;;;20.95;40.59;101265.94;691292;28;45037;-66
2022/06/04 00:53:08;;;;;;;378.80;348.30;;;;;;;20.93;40.51;101262.59;690718;28;67441;-66
2022/06/04 00:53:30;;;;;;;584.08;529.95;;;;;;;20.95;40.46;101267.84;689783;28;92272;-66
2022/06/04 00:53:51;;;;;;;517.10;464.48;;;;;;;20.96;40.51;101264.06;692445;28;22386;-66
2022/06/04 00:54:13;;;;;;;452.98;388.33;;;;;;;20.96;40.59;101264.88;691271;28;44313;-66
2022/06/04 00:54:35;;;;;;;482.25;430.20;;;;;;;20.95;40.48;101263.19;690722;28;23405;-66
2022/06/04 00:54:57;;;;;;;545.80;491.67;;;;;;;20.96;40.62;101253.06;691486;28;44530;-66
2022/06/04 00:55:20;;;;;;;482.30;430.30;;;;;;;20.95;40.41;101254.97;690642;28;69419;-66
2022/06/04 00:55:47;;;;;;;452.35;377.90;;;;;;;20.95;40.64;101262.38;690187;28;68406;-66
2022/06/04 00:56:16;;;;;;;444.40;357.85;;;;;;;20.93;40.54;101256.28;688346;28;138198;-66
2022/06/04 00:56:43;;;;;;;484.92;432.75;;;;;;;20.91;40.56;101256.50;688026;28;138484;-66
2022/06/04 00:57:34;;;;;;;550.97;497.75;;;;;;;20.89;40.75;101253.13;687631;28;137899;-66
2022/06/04 00:58:13;;;;;;;448.35;367.42;;;;;;;20.88;40.75;101248.75;688457;28;137783;-66
2022/06/04 00:58:44;;;;;;;450.15;369.15;;;;;;;20.83;40.88;101254.94;688377;28;137108;-66
2022/06/04 00:59:17;;;;;;;451.27;371.52;;;;;;;20.84;41.03;101258.50;688107;28;135775;-66
2022/06/04 00:59:44;;;;;;;453.83;372.15;;;;;;;20.81;41.03;101245.25;685212;28;160631;-67
2022/06/04 01:00:08;;;;;;;467.55;391.75;;;;;;;20.80;41.17;101255.41;687217;28;136431;-66
2022/06/04 01:00:34;;;;;;;454.25;373.92;;;;;;;20.80;41.24;101262.78;689335;28;92283;-66
2022/06/04 01:00:59;;;;;;;459.95;390.95;;;;;;;20.77;41.21;101253.13;688220;28;138868;-66
2022/06/04 01:01:23;;;;;;;461.30;403.42;;;;;;;20.79;41.34;101259.19;688566;28;115091;-66
2022/06/04 01:01:50;;;;;;;534.70;482.15;;;;;;;20.77;40.97;101253.13;689256;28;92561;-66
2022/06/04 01:02:16;;;;;;;552.85;499.75;;;;;;;20.78;41.30;101259.44;687927;28;137998;-66
2022/06/04 01:03:01;;;;;;;495.63;442.88;;;;;;;20.76;41.42;101265.16;688168;28;138526;-66
2022/06/04 01:03:29;;;;;;;529.65;475.55;;;;;;;20.75;41.49;101257.97;686998;28;138008;-66
2022/06/04 01:03:59;;;;;;;505.35;452.25;;;;;;;20.75;41.49;101259.91;687215;28;136765;-66
2022/06/04 01:05:18;;;;;;;205.10;196.57;;;;;;;20.70;41.72;101253.22;686925;28;156248;-66
2022/06/04 01:05:51;;;;;;;302.77;290.15;;;;;;;20.73;41.67;101260.13;688252;28;137361;-66
2022/06/04 01:06:36;;;;;;;267.05;256.00;;;;;;;20.74;41.67;101261.00;688540;28;135966;-66
2022/06/04 01:07:03;;;;;;;279.75;268.15;;;;;;;20.74;41.62;101263.72;686797;28;160555;-66
2022/06/04 01:07:38;;;;;;;270.90;259.65;;;;;;;20.73;41.69;101262.03;687981;28;137734;-66
2022/06/04 01:08:25;;;;;;;309.80;296.85;;;;;;;20.73;41.75;101265.63;687657;28;137974;-65
2022/06/04 01:09:06;;;;;;;294.45;282.25;;;;;;;20.74;41.79;101263.72;688370;28;138852;-66
2022/06/04 01:09:40;;;;;;;330.70;316.83;;;;;;;20.74;41.84;101263.72;687756;28;136019;-66
2022/06/04 01:10:12;;;;;;;339.33;324.15;;;;;;;20.75;41.87;101263.47;684791;28;157255;-66
2022/06/04 01:10:42;;;;;;;378.90;362.27;;;;;;;20.76;41.83;101256.09;688014;28;137601;-66
2022/06/04 01:11:12;;;;;;;383.92;366.98;;;;;;;20.76;41.83;101264.31;687546;28;160534;-66
2022/06/04 01:12:35;;;;;;;369.95;353.90;;;;;;;20.78;41.94;101263.00;684660;28;135685;-66
2022/06/04 01:13:07;;;;;;;440.42;419.40;;;;;;;20.79;41.86;101261.94;684979;28;160797;-66
2022/06/04 01:13:39;;;;;;;506.35;479.25;;;;;;;20.81;41.87;101258.97;681363;28;160504;-66
2022/06/04 01:14:11;;;;;;;320.55;306.77;;;;;;;20.79;41.88;101261.13;683067;28;135977;-66
2022/06/04 01:14:35;;;;;;;373.52;357.38;;;;;;;20.81;41.88;101259.78;683620;28;138561;-66
2022/06/04 01:15:05;;;;;;;364.80;349.15;;;;;;;20.81;42.19;101265.28;687872;28;69382;-66
2022/06/04 01:15:47;;;;;;;310.75;297.67;;;;;;;20.82;41.94;101260.66;687299;28;138358;-66
2022/06/04 01:16:12;;;;;;;313.25;299.95;;;;;;;20.81;42.03;101259.78;688357;28;135976;-66
2022/06/04 01:16:37;;;;;;;220.30;211.23;;;;;;;20.80;41.87;101258.13;688874;28;92051;-66
2022/06/04 01:17:04;;;;;;;217.52;208.35;;;;;;;20.77;41.90;101258.59;688821;28;115005;-66
2022/06/04 01:17:35;;;;;;;226.77;217.25;;;;;;;20.78;41.94;101256.69;687930;28;138088;-66
2022/06/04 01:18:06;;;;;;;229.90;220.40;;;;;;;20.79;41.96;101258.38;688270;28;136014;-66
2022/06/04 01:18:41;;;;;;;204.18;195.60;;;;;;;20.77;42.05;101260.50;690903;28;60175;-66
2022/06/04 01:19:11;;;;;;;200.93;192.55;;;;;;;20.78;41.98;101262.19;688305;28;137272;-66
2022/06/04 01:19:52;;;;;;;196.35;188.15;;;;;;;20.77;42.14;101261.34;687431;28;137706;-66
2022/06/04 01:20:23;;;;;;;183.63;175.98;;;;;;;20.76;42.11;101265.16;687792;28;137711;-66
2022/06/04 01:20:52;;;;;;;185.18;177.45;;;;;;;20.75;42.20;101266.22;687996;28;137839;-66
2022/06/04 01:21:19;;;;;;;180.07;172.52;;;;;;;20.75;42.05;101265.38;687525;28;160913;-66
2022/06/04 01:21:53;;;;;;;191.70;183.65;;;;;;;20.74;42.12;101261.00;684002;28;137725;-66
2022/06/04 01:22:28;;;;;;;212.52;203.27;;;;;;;20.70;42.18;101261.44;683962;28;130659;-66
2022/06/04 01:23:28;;;;;;;225.25;215.75;;;;;;;20.71;42.24;101267.75;686806;28;62257;-66
2022/06/04 01:24:31;;;;;;;223.95;214.73;;;;;;;20.70;42.27;101266.94;681991;28;138325;-66
2022/06/04 01:25:04;;;;;;;279.60;267.92;;;;;;;20.69;42.26;101264.44;680816;28;157537;-66
2022/06/04 01:25:32;;;;;;;244.10;234.05;;;;;;;20.67;42.42;101266.53;682731;28;138475;-66
2022/06/04 01:26:09;;;;;;;383.30;366.23;;;;;;;20.66;42.39;101265.72;684856;28;138008;-66
2022/06/04 01:26:48;;;;;;;594.13;557.42;;;;;;;20.63;42.24;101260.66;687114;28;161821;-66
2022/06/04 01:27:16;;;;;;;579.40;544.35;;;;;;;20.65;42.57;101263.19;687746;28;137491;-66
2022/06/04 01:27:42;;;;;;;576.63;542.35;;;;;;;20.62;42.65;101258.16;687931;28;137547;-66
2022/06/04 01:28:05;;;;;;;573.72;539.25;;;;;;;20.64;42.59;101262.38;688328;28;138111;-66
2022/06/04 01:28:29;;;;;;;594.13;556.70;;;;;;;20.64;42.71;101267.88;689383;28;92055;-67
2022/06/04 01:28:54;;;;;;;610.22;569.25;;;;;;;20.62;42.99;101269.13;690405;28;69418;-67
2022/06/04 01:29:18;;;;;;;621.80;573.33;;;;;;;20.62;42.90;101272.69;688949;28;115821;-66
2022/06/04 01:29:47;;;;;;;590.53;551.67;;;;;;;20.63;42.60;101268.06;688277;28;113669;-66
2022/06/04 01:30:11;;;;;;;547.72;517.13;;;;;;;20.63;42.79;101268.06;688881;28;117097;-66
2022/06/04 01:30:37;;;;;;;521.95;494.15;;;;;;;20.62;42.75;101267.19;686706;28;89729;-66
2022/06/04 01:31:03;;;;;;;457.08;434.67;;;;;;;20.64;42.81;101266.97;685087;28;138018;-66
2022/06/04 01:31:32;;;;;;;396.73;378.92;;;;;;;20.63;42.80;101266.16;685079;28;138927;-67
2022/06/04 01:31:58;;;;;;;345.08;330.27;;;;;;;20.65;42.84;101275.00;684863;28;137609;-67
2022/06/04 01:32:25;;;;;;;258.30;247.60;;;;;;;20.65;42.90;101272.25;685688;28;138403;-66
2022/06/04 01:32:50;;;;;;;225.63;216.23;;;;;;;20.65;42.87;101275.00;687907;28;137833;-66
2022/06/04 01:33:15;;;;;;;207.00;198.45;;;;;;;20.63;42.69;101265.31;689834;28;92268;-66
2022/06/04 01:33:38;;;;;;;188.80;180.93;;;;;;;20.65;42.90;101277.75;688942;28;113729;-66
2022/06/04 01:34:04;;;;;;;135.55;129.85;;;;;;;20.65;42.91;101272.25;689867;28;92283;-66
2022/06/04 01:34:33;;;;;;;142.48;136.38;;;;;;;20.60;42.82;101263.84;690095;28;58932;-66
2022/06/04 01:35:02;;;;;;;117.57;112.47;;;;;;;20.63;43.01;101268.88;688520;28;107686;-67
2022/06/04 01:35:28;;;;;;;127.97;122.55;;;;;;;20.65;42.82;101272.25;687924;28;137835;-66
2022/06/04 01:35:53;;;;;;;132.73;127.03;;;;;;;20.64;42.90;101270.59;688232;28;137966;-66
2022/06/04 01:36:17;;;;;;;130.30;124.78;;;;;;;20.64;43.03;101269.72;688465;28;115550;-66
2022/06/04 01:36:43;;;;;;;178.43;170.88;;;;;;;20.63;42.91;101265.31;688375;28;92391;-66
2022/06/04 01:37:09;;;;;;;278.92;266.58;;;;;;;20.63;42.89;101268.88;687358;28;137900;-66
2022/06/04 01:37:32;;;;;;;289.23;277.15;;;;;;;20.64;42.88;101267.88;690049;28;71023;-66
2022/06/04 01:37:55;;;;;;;293.50;281.33;;;;;;;20.64;42.98;101267.88;690512;28;69220;-66
2022/06/04 01:38:22;;;;;;;308.02;295.15;;;;;;;20.65;43.04;101265.94;690423;28;69417;-64
2022/06/04 01:38:46;;;;;;;338.40;323.95;;;;;;;20.64;43.03;101266.97;687472;28;138070;-65
2022/06/04 01:39:11;;;;;;;335.23;320.85;;;;;;;20.64;42.99;101266.97;689444;28;90801;-65
2022/06/04 01:41:04;;;;;;;366.58;350.25;;;;;;;20.64;43.09;101264.22;687879;28;135772;-66
2022/06/04 01:41:29;;;;;;;426.45;406.00;;;;;;;20.64;43.06;101272.47;687976;28;137570;-66
2022/06/04 01:41:53;;;;;;;469.05;445.45;;;;;;;20.65;43.08;101265.94;688220;28;138141;-66
2022/06/04 01:42:15;;;;;;;497.35;471.20;;;;;;;20.65;43.00;101265.94;688926;28;90098;-64
2022/06/04 01:42:37;;;;;;;540.15;508.77;;;;;;;20.65;43.04;101268.69;691558;28;44343;-66
2022/06/04 01:43:00;;;;;;;580.25;543.80;;;;;;;20.64;42.98;101264.22;690991;28;46782;-65
2022/06/04 01:43:24;;;;;;;545.08;513.30;;;;;;;20.65;43.16;101271.44;690963;28;45317;-66
2022/06/04 01:43:48;;;;;;;573.33;537.53;;;;;;;20.65;43.23;101266.78;689212;28;92696;-66
2022/06/04 01:44:13;;;;;;;586.28;547.92;;;;;;;20.65;43.17;101257.72;689257;28;92227;-66
2022/06/04 01:44:36;;;;;;;595.05;555.72;;;;;;;20.64;43.17;101266.97;686985;28;114867;-66
2022/06/04 01:45:00;;;;;;;592.78;551.60;;;;;;;20.64;43.22;101262.38;690653;28;70370;-66
2022/06/04 01:45:23;;;;;;;604.13;561.20;;;;;;;20.65;43.13;101257.72;689003;28;92258;-66
2022/06/04 01:45:45;;;;;;;606.10;562.78;;;;;;;20.64;43.08;101261.47;690313;28;67467;-67
2022/06/04 01:46:14;;;;;;;605.72;561.65;;;;;;;20.63;43.16;101266.16;690567;28;44355;-66
2022/06/04 01:46:40;;;;;;;606.00;563.53;;;;;;;20.63;43.23;101262.56;688144;28;138312;-67
2022/06/04 01:47:04;;;;;;;604.85;561.85;;;;;;;20.62;43.25;101267.19;687078;28;138072;-66
2022/06/04 01:47:28;;;;;;;609.05;564.13;;;;;;;20.62;43.24;101256.22;688666;28;113622;-66
2022/06/04 01:47:51;;;;;;;610.55;564.05;;;;;;;20.61;43.25;101261.94;689742;28;90765;-66
2022/06/04 01:48:13;;;;;;;608.72;558.03;;;;;;;20.61;43.67;101267.44;687673;28;65780;-66
2022/06/04 01:48:38;;;;;;;616.30;566.97;;;;;;;20.60;43.38;101254.81;688101;28;43591;-66
2022/06/04 01:49:03;;;;;;;610.13;563.35;;;;;;;20.59;43.45;101264.09;686436;28;113599;-67
2022/06/04 01:49:28;;;;;;;608.42;562.15;;;;;;;20.57;43.31;101258.00;688688;28;47719;-66
2022/06/04 01:49:53;;;;;;;613.38;567.22;;;;;;;20.57;43.54;101261.56;684806;28;138004;-66
2022/06/04 01:50:17;;;;;;;612.60;566.53;;;;;;;20.56;43.48;101257.16;689419;28;92392;-66
2022/06/04 01:50:41;;;;;;;610.60;565.00;;;;;;;20.57;43.63;101261.56;689949;28;90794;-66
2022/06/04 01:51:05;;;;;;;607.60;562.20;;;;;;;20.57;43.62;101261.56;688876;28;115176;-66
2022/06/04 01:51:27;;;;;;;607.40;562.40;;;;;;;20.54;43.71;101267.53;690698;28;70228;-66
2022/06/04 01:51:50;;;;;;;605.95;560.45;;;;;;;20.53;43.79;101255.72;690950;28;46032;-66
2022/06/04 01:52:15;;;;;;;610.30;564.50;;;;;;;20.52;43.95;101265.00;690073;28;93063;-67
2022/06/04 01:52:38;;;;;;;611.22;565.33;;;;;;;20.52;43.75;101262.28;689036;28;115119;-66
2022/06/04 01:53:01;;;;;;;608.60;561.65;;;;;;;20.50;43.80;101258.94;690240;28;67267;-66
2022/06/04 01:53:26;;;;;;;607.85;561.40;;;;;;;20.50;43.79;101261.66;690417;28;70280;-66
2022/06/04 01:53:51;;;;;;;606.70;561.85;;;;;;;20.49;43.89;101262.72;688934;28;115942;-66
2022/06/04 01:54:17;;;;;;;594.92;554.78;;;;;;;20.49;43.87;101260.00;688514;28;115087;-66
2022/06/04 01:54:45;;;;;;;580.55;543.08;;;;;;;20.49;43.89;101265.47;686945;28;138017;-66
2022/06/04 01:55:10;;;;;;;592.90;553.42;;;;;;;20.47;44.06;101256.66;688518;28;137646;-66
2022/06/04 01:55:36;;;;;;;606.67;561.30;;;;;;;20.47;43.97;101256.66;688869;28;115048;-66
2022/06/04 01:56:01;;;;;;;598.25;555.58;;;;;;;20.44;44.09;101257.09;688262;28;138085;-66
2022/06/04 01:56:27;;;;;;;589.30;549.90;;;;;;;20.48;43.98;101255.56;688352;28;114911;-66
2022/06/04 01:56:50;;;;;;;573.55;537.75;;;;;;;20.48;43.92;101260.22;687669;28;137633;-66
2022/06/04 01:57:16;;;;;;;568.22;533.35;;;;;;;20.47;44.13;101256.66;690310;28;67472;-66
2022/06/04 01:57:42;;;;;;;554.55;521.60;;;;;;;20.47;44.15;101256.66;688327;28;138153;-66
2022/06/04 01:58:05;;;;;;;553.50;520.35;;;;;;;20.45;44.04;101255.19;688957;28;113509;-66
2022/06/04 01:58:28;;;;;;;558.72;525.05;;;;;;;20.47;44.18;101264.03;689853;28;90643;-65
2022/06/04 01:58:53;;;;;;;572.67;537.00;;;;;;;20.46;44.15;101271.41;690393;28;69442;-65
2022/06/04 01:59:17;;;;;;;565.60;530.90;;;;;;;20.46;43.98;101262.38;689942;28;92176;-65
2022/06/04 01:59:42;;;;;;;563.25;528.55;;;;;;;20.46;44.18;101265.09;687599;28;115214;-65
2022/06/04 02:00:07;;;;;;;573.40;537.90;;;;;;;20.44;44.05;101259.84;688953;28;115885;-65
2022/06/04 02:00:33;;;;;;;570.65;535.03;;;;;;;20.44;44.23;101264.47;688983;28;115159;-64
2022/06/04 02:00:59;;;;;;;564.78;529.85;;;;;;;20.41;44.28;101263.06;688130;28;138142;-66
2022/06/04 02:01:24;;;;;;;549.95;517.80;;;;;;;20.40;44.36;101258.63;687915;28;138767;-66
2022/06/04 02:01:48;;;;;;;554.67;521.63;;;;;;;20.40;44.43;101260.53;689560;28;92408;-65
2022/06/04 02:02:13;;;;;;;554.65;521.65;;;;;;;20.39;44.50;101256.97;689767;28;91396;-65
2022/06/04 02:02:37;;;;;;;562.03;527.83;;;;;;;20.40;44.51;101264.09;687754;28;137612;-65
2022/06/04 02:03:01;;;;;;;560.95;526.95;;;;;;;20.40;44.54;101255.88;689346;28;92259;-65
2022/06/04 02:03:29;;;;;;;557.72;524.10;;;;;;;20.41;44.35;101262.22;688360;28;113548;-65
2022/06/04 02:03:54;;;;;;;555.50;522.13;;;;;;;20.41;44.39;101262.22;687729;28;138162;-65
2022/06/04 02:04:18;;;;;;;547.17;515.05;;;;;;;20.40;44.37;101258.63;688047;28;137306;-65
2022/06/04 02:04:47;;;;;;;526.53;496.35;;;;;;;20.40;44.49;101255.88;688685;28;92270;-65